sensor_id;sensor_type;location;lat;lon;timestamp;pressure;altitude;pressure_sealevel;temperature;humidity
6395;BME280;3230;42.588;23.358;2024-02-28T00:00:48;91319.78;;;4.58;100.00
6395;BME280;3230;42.588;23.358;2024-02-28T00:03:13;91320.34;;;4.48;100.00
6395;BME280;3230;42.588;23.358;2024-02-28T00:05:38;91321.69;;;4.63;100.00
6395;BME280;3230;42.588;23.358;2024-02-28T00:08:04;91318.25;;;4.74;100.00
6395;BME280;3230;42.588;23.358;2024-02-28T00:10:29;91325.63;;;4.66;100.00
6395;BME280;3230;42.588;23.358;2024-02-28T00:12:55;91323.16;;;4.59;100.00
6395;BME280;3230;42.588;23.358;2024-02-28T00:15:20;91323.06;;;4.54;100.00
6395;BME280;3230;42.588;23.358;2024-02-28T00:17:46;91320.59;;;4.47;100.00
6395;BME280;3230;42.588;23.358;2024-02-28T00:20:11;91330.38;;;4.57;100.00
6395;BME280;3230;42.588;23.358;2024-02-28T00:22:38;91324.88;;;4.53;100.00
6395;BME280;3230;42.588;23.358;2024-02-28T00:25:04;91325.88;;;4.52;100.00
6395;BME280;3230;42.588;23.358;2024-02-28T00:27:32;91322.84;;;4.43;100.00
6395;BME280;3230;42.588;23.358;2024-02-28T00:29:57;91321.28;;;4.42;100.00
6395;BME280;3230;42.588;23.358;2024-02-28T00:32:23;91319.38;;;4.26;100.00
6395;BME280;3230;42.588;23.358;2024-02-28T00:34:48;91325.69;;;4.30;100.00
6395;BME280;3230;42.588;23.358;2024-02-28T00:37:13;91324.69;;;4.07;100.00
6395;BME280;3230;42.588;23.358;2024-02-28T00:39:39;91327.72;;;4.04;100.00
6395;BME280;3230;42.588;23.358;2024-02-28T00:42:04;91322.09;;;4.19;100.00
6395;BME280;3230;42.588;23.358;2024-02-28T00:44:30;91322.97;;;4.25;100.00
6395;BME280;3230;42.588;23.358;2024-02-28T00:46:55;91321.28;;;4.30;100.00
6395;BME280;3230;42.588;23.358;2024-02-28T00:49:21;91324.31;;;4.39;100.00
6395;BME280;3230;42.588;23.358;2024-02-28T00:51:47;91320.03;;;4.33;100.00
6395;BME280;3230;42.588;23.358;2024-02-28T00:54:12;91312.81;;;4.35;100.00
6395;BME280;3230;42.588;23.358;2024-02-28T00:56:38;91312.16;;;4.28;100.00
6395;BME280;3230;42.588;23.358;2024-02-28T00:59:03;91322.06;;;4.31;100.00
6395;BME280;3230;42.588;23.358;2024-02-28T01:01:29;91324.78;;;4.36;100.00
6395;BME280;3230;42.588;23.358;2024-02-28T01:03:54;91326.91;;;4.39;100.00
6395;BME280;3230;42.588;23.358;2024-02-28T01:06:19;91319.59;;;4.36;100.00
6395;BME280;3230;42.588;23.358;2024-02-28T01:08:45;91319.47;;;4.31;100.00
6395;BME280;3230;42.588;23.358;2024-02-28T01:11:10;91320.84;;;4.22;100.00
6395;BME280;3230;42.588;23.358;2024-02-28T01:13:36;91314.66;;;4.23;100.00
6395;BME280;3230;42.588;23.358;2024-02-28T01:16:01;91326.25;;;4.20;100.00
6395;BME280;3230;42.588;23.358;2024-02-28T01:18:27;91319.38;;;4.26;100.00
6395;BME280;3230;42.588;23.358;2024-02-28T01:20:56;91326.47;;;4.19;100.00
6395;BME280;3230;42.588;23.358;2024-02-28T01:23:22;91329.06;;;4.19;100.00
6395;BME280;3230;42.588;23.358;2024-02-28T01:25:48;91332.69;;;4.18;100.00
6395;BME280;3230;42.588;23.358;2024-02-28T01:28:13;91330.31;;;4.16;100.00
6395;BME280;3230;42.588;23.358;2024-02-28T01:30:38;91329.41;;;4.22;100.00
6395;BME280;3230;42.588;23.358;2024-02-28T01:33:04;91326.25;;;4.20;100.00
6395;BME280;3230;42.588;23.358;2024-02-28T01:35:29;91330.78;;;4.01;100.00
6395;BME280;3230;42.588;23.358;2024-02-28T01:37:55;91325.47;;;4.08;100.00
6395;BME280;3230;42.588;23.358;2024-02-28T01:40:20;91332.47;;;4.07;100.00
6395;BME280;3230;42.588;23.358;2024-02-28T01:42:46;91334.06;;;4.08;100.00
6395;BME280;3230;42.588;23.358;2024-02-28T01:45:13;91342.03;;;4.07;100.00
6395;BME280;3230;42.588;23.358;2024-02-28T01:47:39;91341.84;;;4.08;100.00
6395;BME280;3230;42.588;23.358;2024-02-28T01:50:05;91349.28;;;4.16;100.00
6395;BME280;3230;42.588;23.358;2024-02-28T01:52:31;91346.09;;;4.03;100.00
6395;BME280;3230;42.588;23.358;2024-02-28T01:54:56;91336.53;;;4.03;100.00
6395;BME280;3230;42.588;23.358;2024-02-28T01:57:22;91345.09;;;4.15;100.00
6395;BME280;3230;42.588;23.358;2024-02-28T01:59:48;91343.75;;;4.13;100.00
6395;BME280;3230;42.588;23.358;2024-02-28T02:02:13;91345.78;;;3.99;100.00
6395;BME280;3230;42.588;23.358;2024-02-28T02:04:38;91345.34;;;4.02;100.00
6395;BME280;3230;42.588;23.358;2024-02-28T02:07:05;91341.72;;;4.03;100.00
6395;BME280;3230;42.588;23.358;2024-02-28T02:09:34;91349.28;;;3.93;100.00
6395;BME280;3230;42.588;23.358;2024-02-28T02:12:00;91344.75;;;3.88;100.00
6395;BME280;3230;42.588;23.358;2024-02-28T02:14:26;91337.66;;;3.95;100.00
6395;BME280;3230;42.588;23.358;2024-02-28T02:16:51;91349.03;;;3.94;100.00
6395;BME280;3230;42.588;23.358;2024-02-28T02:19:16;91332.69;;;3.94;100.00
6395;BME280;3230;42.588;23.358;2024-02-28T02:21:50;91336.53;;;3.79;100.00
6395;BME280;3230;42.588;23.358;2024-02-28T02:24:17;91340.25;;;3.72;100.00
6395;BME280;3230;42.588;23.358;2024-02-28T02:26:42;91341.13;;;3.54;100.00
6395;BME280;3230;42.588;23.358;2024-02-28T02:29:10;91344.13;;;3.50;100.00
6395;BME280;3230;42.588;23.358;2024-02-28T02:31:35;91335.47;;;3.45;100.00
6395;BME280;3230;42.588;23.358;2024-02-28T02:34:00;91339.09;;;3.56;100.00
6395;BME280;3230;42.588;23.358;2024-02-28T02:36:26;91341.47;;;3.57;100.00
6395;BME280;3230;42.588;23.358;2024-02-28T02:38:52;91337.31;;;3.68;100.00
6395;BME280;3230;42.588;23.358;2024-02-28T02:41:17;91339.31;;;3.66;100.00
6395;BME280;3230;42.588;23.358;2024-02-28T02:43:43;91329.53;;;3.68;100.00
6395;BME280;3230;42.588;23.358;2024-02-28T02:46:08;91338.19;;;3.74;100.00
6395;BME280;3230;42.588;23.358;2024-02-28T02:48:34;91332.00;;;3.75;100.00
6395;BME280;3230;42.588;23.358;2024-02-28T02:50:59;91333.13;;;3.67;100.00
6395;BME280;3230;42.588;23.358;2024-02-28T02:53:24;91333.03;;;3.62;100.00
6395;BME280;3230;42.588;23.358;2024-02-28T02:55:50;91339.75;;;3.51;100.00
6395;BME280;3230;42.588;23.358;2024-02-28T02:58:15;91338.06;;;3.45;100.00
6395;BME280;3230;42.588;23.358;2024-02-28T03:00:41;91327.94;;;3.55;100.00
6395;BME280;3230;42.588;23.358;2024-02-28T03:03:06;91334.56;;;3.39;100.00
6395;BME280;3230;42.588;23.358;2024-02-28T03:05:32;91330.38;;;3.38;100.00
6395;BME280;3230;42.588;23.358;2024-02-28T03:07:57;91329.81;;;3.36;100.00
6395;BME280;3230;42.588;23.358;2024-02-28T03:10:23;91331.28;;;3.44;100.00
6395;BME280;3230;42.588;23.358;2024-02-28T03:12:48;91331.28;;;3.44;100.00
6395;BME280;3230;42.588;23.358;2024-02-28T03:15:13;91335.81;;;3.48;100.00
6395;BME280;3230;42.588;23.358;2024-02-28T03:17:39;91334.00;;;3.49;100.00
6395;BME280;3230;42.588;23.358;2024-02-28T03:20:05;91331.50;;;3.42;100.00
6395;BME280;3230;42.588;23.358;2024-02-28T03:22:32;91332.66;;;3.46;100.00
6395;BME280;3230;42.588;23.358;2024-02-28T03:24:57;91332.72;;;3.28;100.00
6395;BME280;3230;42.588;23.358;2024-02-28T03:27:22;91338.81;;;3.33;100.00
6395;BME280;3230;42.588;23.358;2024-02-28T03:29:48;91338.53;;;3.54;100.00
6395;BME280;3230;42.588;23.358;2024-02-28T03:32:13;91345.28;;;3.55;100.00
6395;BME280;3230;42.588;23.358;2024-02-28T03:34:39;91345.19;;;3.61;100.00
6395;BME280;3230;42.588;23.358;2024-02-28T03:37:05;91350.38;;;3.73;100.00
6395;BME280;3230;42.588;23.358;2024-02-28T03:39:30;91343.81;;;3.59;100.00
6395;BME280;3230;42.588;23.358;2024-02-28T03:41:55;91354.75;;;3.61;100.00
6395;BME280;3230;42.588;23.358;2024-02-28T03:44:21;91351.25;;;3.55;100.00
6395;BME280;3230;42.588;23.358;2024-02-28T03:46:47;91357.66;;;3.52;100.00
6395;BME280;3230;42.588;23.358;2024-02-28T03:49:19;91353.19;;;3.60;100.00
6395;BME280;3230;42.588;23.358;2024-02-28T03:51:44;91352.50;;;3.52;100.00
6395;BME280;3230;42.588;23.358;2024-02-28T03:54:16;91356.31;;;3.50;100.00
6395;BME280;3230;42.588;23.358;2024-02-28T03:56:42;91357.56;;;3.59;100.00
6395;BME280;3230;42.588;23.358;2024-02-28T03:59:07;91357.91;;;3.63;100.00
6395;BME280;3230;42.588;23.358;2024-02-28T04:01:32;91362.88;;;3.64;100.00
6395;BME280;3230;42.588;23.358;2024-02-28T04:03:58;91355.19;;;3.58;100.00
6395;BME280;3230;42.588;23.358;2024-02-28T04:06:24;91352.91;;;3.49;100.00
6395;BME280;3230;42.588;23.358;2024-02-28T04:08:49;91351.25;;;3.55;100.00
6395;BME280;3230;42.588;23.358;2024-02-28T04:11:15;91350.13;;;3.51;100.00
6395;BME280;3230;42.588;23.358;2024-02-28T04:13:40;91342.66;;;3.43;100.00
6395;BME280;3230;42.588;23.358;2024-02-28T04:16:07;91345.59;;;3.46;100.00
6395;BME280;3230;42.588;23.358;2024-02-28T04:18:32;91351.38;;;3.48;100.00
6395;BME280;3230;42.588;23.358;2024-02-28T04:20:58;91338.25;;;3.43;100.00
6395;BME280;3230;42.588;23.358;2024-02-28T04:23:24;91343.91;;;3.40;100.00
6395;BME280;3230;42.588;23.358;2024-02-28T04:25:49;91344.34;;;3.37;100.00
6395;BME280;3230;42.588;23.358;2024-02-28T04:28:14;91342.41;;;3.32;100.00
6395;BME280;3230;42.588;23.358;2024-02-28T04:30:40;91339.16;;;3.37;100.00
6395;BME280;3230;42.588;23.358;2024-02-28T04:33:05;91340.69;;;3.26;100.00
6395;BME280;3230;42.588;23.358;2024-02-28T04:35:31;91341.38;;;3.22;100.00
6395;BME280;3230;42.588;23.358;2024-02-28T04:37:56;91339.66;;;3.15;100.00
6395;BME280;3230;42.588;23.358;2024-02-28T04:40:21;91349.81;;;3.17;100.00
6395;BME280;3230;42.588;23.358;2024-02-28T04:42:47;91336.28;;;3.15;100.00
6395;BME280;3230;42.588;23.358;2024-02-28T04:45:12;91341.81;;;3.18;100.00
6395;BME280;3230;42.588;23.358;2024-02-28T04:47:38;91344.44;;;3.30;100.00
6395;BME280;3230;42.588;23.358;2024-02-28T04:50:04;91347.72;;;3.38;100.00
6395;BME280;3230;42.588;23.358;2024-02-28T04:52:31;91353.25;;;3.41;100.00
6395;BME280;3230;42.588;23.358;2024-02-28T04:54:57;91348.03;;;3.29;100.00
6395;BME280;3230;42.588;23.358;2024-02-28T04:57:22;91346.81;;;3.32;100.00
6395;BME280;3230;42.588;23.358;2024-02-28T04:59:48;91342.25;;;3.15;100.00
6395;BME280;3230;42.588;23.358;2024-02-28T05:02:13;91347.06;;;3.12;100.00
6395;BME280;3230;42.588;23.358;2024-02-28T05:04:38;91358.34;;;3.17;100.00
6395;BME280;3230;42.588;23.358;2024-02-28T05:07:04;91356.56;;;3.18;100.00
6395;BME280;3230;42.588;23.358;2024-02-28T05:09:29;91363.47;;;3.36;100.00
6395;BME280;3230;42.588;23.358;2024-02-28T05:11:55;91364.28;;;3.36;100.00
6395;BME280;3230;42.588;23.358;2024-02-28T05:14:20;91364.84;;;3.39;100.00
6395;BME280;3230;42.588;23.358;2024-02-28T05:16:48;91363.66;;;3.23;100.00
6395;BME280;3230;42.588;23.358;2024-02-28T05:19:14;91361.91;;;3.35;100.00
6395;BME280;3230;42.588;23.358;2024-02-28T05:21:40;91369.13;;;3.33;100.00
6395;BME280;3230;42.588;23.358;2024-02-28T05:24:06;91373.44;;;3.51;100.00
6395;BME280;3230;42.588;23.358;2024-02-28T05:26:34;91377.03;;;3.50;100.00
6395;BME280;3230;42.588;23.358;2024-02-28T05:29:00;91382.59;;;3.77;100.00
6395;BME280;3230;42.588;23.358;2024-02-28T05:31:26;91380.63;;;4.03;100.00
6395;BME280;3230;42.588;23.358;2024-02-28T05:33:53;91382.63;;;4.25;100.00
6395;BME280;3230;42.588;23.358;2024-02-28T05:36:20;91392.69;;;4.57;100.00
6395;BME280;3230;42.588;23.358;2024-02-28T05:38:45;91397.56;;;4.94;100.00
6395;BME280;3230;42.588;23.358;2024-02-28T05:41:11;91395.34;;;5.15;100.00
6395;BME280;3230;42.588;23.358;2024-02-28T05:43:37;91404.00;;;5.03;100.00
6395;BME280;3230;42.588;23.358;2024-02-28T05:46:03;91408.66;;;5.59;100.00
6395;BME280;3230;42.588;23.358;2024-02-28T05:48:28;91414.66;;;5.76;100.00
6395;BME280;3230;42.588;23.358;2024-02-28T05:50:54;91413.84;;;5.76;100.00
6395;BME280;3230;42.588;23.358;2024-02-28T05:53:19;91422.59;;;5.99;100.00
6395;BME280;3230;42.588;23.358;2024-02-28T05:55:45;91418.25;;;6.38;100.00
6395;BME280;3230;42.588;23.358;2024-02-28T05:58:11;91420.84;;;7.17;100.00
6395;BME280;3230;42.588;23.358;2024-02-28T06:00:36;91426.34;;;7.43;98.29
6395;BME280;3230;42.588;23.358;2024-02-28T06:03:02;91429.00;;;7.26;97.67
6395;BME280;3230;42.588;23.358;2024-02-28T06:05:28;91433.50;;;8.07;97.46
6395;BME280;3230;42.588;23.358;2024-02-28T06:07:53;91443.69;;;9.96;92.62
6395;BME280;3230;42.588;23.358;2024-02-28T06:10:19;91440.56;;;11.07;84.72
6395;BME280;3230;42.588;23.358;2024-02-28T06:12:46;91447.16;;;11.75;79.91
6395;BME280;3230;42.588;23.358;2024-02-28T06:15:11;91462.56;;;12.37;76.02
6395;BME280;3230;42.588;23.358;2024-02-28T06:17:36;91460.69;;;13.85;66.19
6395;BME280;3230;42.588;23.358;2024-02-28T06:20:02;91463.25;;;14.85;57.94
6395;BME280;3230;42.588;23.358;2024-02-28T06:22:28;91455.81;;;15.21;53.70
6395;BME280;3230;42.588;23.358;2024-02-28T06:24:53;91466.59;;;16.36;50.38
6395;BME280;3230;42.588;23.358;2024-02-28T06:27:18;91475.16;;;16.55;49.19
6395;BME280;3230;42.588;23.358;2024-02-28T06:29:44;91468.16;;;16.96;46.30
6395;BME280;3230;42.588;23.358;2024-02-28T06:32:09;91459.72;;;17.17;46.63
6395;BME280;3230;42.588;23.358;2024-02-28T06:34:34;91457.84;;;18.73;42.82
6395;BME280;3230;42.588;23.358;2024-02-28T06:37:00;91453.44;;;18.42;42.71
6395;BME280;3230;42.588;23.358;2024-02-28T06:39:25;91450.28;;;19.84;40.85
6395;BME280;3230;42.588;23.358;2024-02-28T06:41:51;91452.44;;;20.21;39.16
6395;BME280;3230;42.588;23.358;2024-02-28T06:44:19;91451.59;;;19.60;38.81
6395;BME280;3230;42.588;23.358;2024-02-28T06:46:44;91456.81;;;20.68;37.45
6395;BME280;3230;42.588;23.358;2024-02-28T06:49:10;91452.91;;;19.93;38.20
6395;BME280;3230;42.588;23.358;2024-02-28T06:51:35;91454.44;;;19.55;39.07
6395;BME280;3230;42.588;23.358;2024-02-28T06:54:01;91456.41;;;20.57;36.97
6395;BME280;3230;42.588;23.358;2024-02-28T06:56:27;91448.88;;;20.89;36.26
6395;BME280;3230;42.588;23.358;2024-02-28T06:58:52;91456.25;;;21.50;36.21
6395;BME280;3230;42.588;23.358;2024-02-28T07:01:18;91448.28;;;20.11;38.35
6395;BME280;3230;42.588;23.358;2024-02-28T07:03:44;91455.34;;;19.59;38.33
6395;BME280;3230;42.588;23.358;2024-02-28T07:06:11;91448.75;;;18.74;40.62
6395;BME280;3230;42.588;23.358;2024-02-28T07:08:36;91434.81;;;15.57;47.01
6395;BME280;3230;42.588;23.358;2024-02-28T07:11:02;91432.75;;;14.79;50.31
6395;BME280;3230;42.588;23.358;2024-02-28T07:13:28;91439.56;;;14.47;51.37
6395;BME280;3230;42.588;23.358;2024-02-28T07:15:53;91441.63;;;14.69;51.57
6395;BME280;3230;42.588;23.358;2024-02-28T07:18:19;91435.09;;;14.10;54.36
6395;BME280;3230;42.588;23.358;2024-02-28T07:20:45;91437.53;;;13.33;59.75
6395;BME280;3230;42.588;23.358;2024-02-28T07:23:11;91444.66;;;13.08;62.86
6395;BME280;3230;42.588;23.358;2024-02-28T07:25:36;91448.97;;;13.23;62.98
6395;BME280;3230;42.588;23.358;2024-02-28T07:28:02;91455.56;;;12.62;69.91
6395;BME280;3230;42.588;23.358;2024-02-28T07:30:28;91448.03;;;12.10;73.15
6395;BME280;3230;42.588;23.358;2024-02-28T07:32:53;91451.00;;;12.38;71.82
6395;BME280;3230;42.588;23.358;2024-02-28T07:35:19;91453.16;;;15.07;58.86
6395;BME280;3230;42.588;23.358;2024-02-28T07:37:46;91457.81;;;15.98;53.66
6395;BME280;3230;42.588;23.358;2024-02-28T07:40:12;91462.69;;;17.47;50.38
6395;BME280;3230;42.588;23.358;2024-02-28T07:42:37;91462.16;;;18.16;47.61
6395;BME280;3230;42.588;23.358;2024-02-28T07:45:03;91464.06;;;18.42;45.92
6395;BME280;3230;42.588;23.358;2024-02-28T07:47:29;91466.88;;;18.72;45.05
6395;BME280;3230;42.588;23.358;2024-02-28T07:49:54;91471.50;;;20.53;41.29
6395;BME280;3230;42.588;23.358;2024-02-28T07:52:20;91475.31;;;20.64;40.60
6395;BME280;3230;42.588;23.358;2024-02-28T07:54:45;91470.53;;;20.06;41.35
6395;BME280;3230;42.588;23.358;2024-02-28T07:57:11;91468.03;;;20.31;41.12
6395;BME280;3230;42.588;23.358;2024-02-28T07:59:43;91474.44;;;21.57;38.50
6395;BME280;3230;42.588;23.358;2024-02-28T08:02:09;91467.09;;;21.20;39.03
6395;BME280;3230;42.588;23.358;2024-02-28T08:04:37;91463.50;;;20.32;40.03
6395;BME280;3230;42.588;23.358;2024-02-28T08:07:02;91468.41;;;21.60;38.12
6395;BME280;3230;42.588;23.358;2024-02-28T08:09:28;91472.72;;;21.19;39.00
6395;BME280;3230;42.588;23.358;2024-02-28T08:11:54;91470.16;;;21.44;38.65
6395;BME280;3230;42.588;23.358;2024-02-28T08:14:19;91462.34;;;21.84;37.56
6395;BME280;3230;42.588;23.358;2024-02-28T08:16:45;91465.81;;;22.22;36.82
6395;BME280;3230;42.588;23.358;2024-02-28T08:19:10;91461.16;;;22.84;35.57
6395;BME280;3230;42.588;23.358;2024-02-28T08:21:35;91463.41;;;21.25;38.19
6395;BME280;3230;42.588;23.358;2024-02-28T08:24:01;91461.50;;;19.99;40.32
6395;BME280;3230;42.588;23.358;2024-02-28T08:26:32;91459.06;;;18.84;42.86
6395;BME280;3230;42.588;23.358;2024-02-28T08:28:57;91458.25;;;19.28;42.20
6395;BME280;3230;42.588;23.358;2024-02-28T08:31:23;91451.22;;;18.27;43.94
6395;BME280;3230;42.588;23.358;2024-02-28T08:33:48;91451.25;;;18.35;43.34
6395;BME280;3230;42.588;23.358;2024-02-28T08:36:14;91458.44;;;18.88;43.81
6395;BME280;3230;42.588;23.358;2024-02-28T08:38:40;91465.44;;;19.84;41.49
6395;BME280;3230;42.588;23.358;2024-02-28T08:41:06;91446.72;;;18.45;43.39
6395;BME280;3230;42.588;23.358;2024-02-28T08:43:33;91459.22;;;18.35;43.86
6395;BME280;3230;42.588;23.358;2024-02-28T08:45:58;91452.63;;;17.66;45.80
6395;BME280;3230;42.588;23.358;2024-02-28T08:48:24;91453.84;;;18.00;45.54
6395;BME280;3230;42.588;23.358;2024-02-28T08:50:49;91453.75;;;18.67;43.79
6395;BME280;3230;42.588;23.358;2024-02-28T08:53:14;91455.00;;;18.26;44.72
6395;BME280;3230;42.588;23.358;2024-02-28T08:55:40;91456.56;;;18.53;43.14
6395;BME280;3230;42.588;23.358;2024-02-28T08:58:05;91451.09;;;18.49;42.73
6395;BME280;3230;42.588;23.358;2024-02-28T09:00:30;91455.16;;;18.64;42.58
6395;BME280;3230;42.588;23.358;2024-02-28T09:02:56;91454.88;;;18.75;42.96
6395;BME280;3230;42.588;23.358;2024-02-28T09:05:23;91455.97;;;16.72;46.67
6395;BME280;3230;42.588;23.358;2024-02-28T09:07:48;91461.66;;;17.02;46.56
6395;BME280;3230;42.588;23.358;2024-02-28T09:10:16;91461.06;;;16.91;46.76
6395;BME280;3230;42.588;23.358;2024-02-28T09:12:46;91459.53;;;16.90;47.17
6395;BME280;3230;42.588;23.358;2024-02-28T09:15:12;91466.56;;;15.99;49.38
6395;BME280;3230;42.588;23.358;2024-02-28T09:17:38;91454.59;;;15.74;50.27
6395;BME280;3230;42.588;23.358;2024-02-28T09:20:03;91459.19;;;15.54;51.53
6395;BME280;3230;42.588;23.358;2024-02-28T09:22:31;91455.66;;;15.73;52.22
6395;BME280;3230;42.588;23.358;2024-02-28T09:24:56;91465.16;;;16.15;51.04
6395;BME280;3230;42.588;23.358;2024-02-28T09:27:22;91455.56;;;16.06;49.82
6395;BME280;3230;42.588;23.358;2024-02-28T09:29:47;91457.44;;;15.91;50.22
6395;BME280;3230;42.588;23.358;2024-02-28T09:32:13;91440.28;;;15.19;52.52
6395;BME280;3230;42.588;23.358;2024-02-28T09:34:39;91442.06;;;15.38;53.04
6395;BME280;3230;42.588;23.358;2024-02-28T09:37:05;91457.53;;;15.58;54.13
6395;BME280;3230;42.588;23.358;2024-02-28T09:39:30;91444.41;;;16.09;50.40
6395;BME280;3230;42.588;23.358;2024-02-28T09:41:56;91437.38;;;15.34;53.88
6395;BME280;3230;42.588;23.358;2024-02-28T09:44:22;91451.00;;;15.09;54.10
6395;BME280;3230;42.588;23.358;2024-02-28T09:46:51;91447.31;;;14.58;57.10
6395;BME280;3230;42.588;23.358;2024-02-28T09:49:18;91452.75;;;14.47;56.84
6395;BME280;3230;42.588;23.358;2024-02-28T09:51:44;91451.88;;;14.71;55.87
6395;BME280;3230;42.588;23.358;2024-02-28T09:54:14;91442.03;;;14.58;54.86
6395;BME280;3230;42.588;23.358;2024-02-28T09:56:40;91443.25;;;13.89;56.69
6395;BME280;3230;42.588;23.358;2024-02-28T09:59:06;91447.19;;;14.11;56.23
6395;BME280;3230;42.588;23.358;2024-02-28T10:01:35;91443.19;;;13.75;57.29
6395;BME280;3230;42.588;23.358;2024-02-28T10:04:02;91447.09;;;13.97;58.80
6395;BME280;3230;42.588;23.358;2024-02-28T10:06:28;91440.69;;;13.84;58.08
6395;BME280;3230;42.588;23.358;2024-02-28T10:08:53;91437.94;;;13.70;60.11
6395;BME280;3230;42.588;23.358;2024-02-28T10:11:22;91438.00;;;13.89;60.05
6395;BME280;3230;42.588;23.358;2024-02-28T10:13:48;91443.97;;;14.14;57.85
6395;BME280;3230;42.588;23.358;2024-02-28T10:16:13;91449.97;;;14.38;56.44
6395;BME280;3230;42.588;23.358;2024-02-28T10:18:45;91435.66;;;14.45;55.83
6395;BME280;3230;42.588;23.358;2024-02-28T10:21:11;91443.97;;;14.14;56.89
6395;BME280;3230;42.588;23.358;2024-02-28T10:23:46;91438.22;;;14.31;57.09
6395;BME280;3230;42.588;23.358;2024-02-28T10:26:12;91438.09;;;14.93;54.25
6395;BME280;3230;42.588;23.358;2024-02-28T10:28:38;91431.75;;;15.08;53.80
6395;BME280;3230;42.588;23.358;2024-02-28T10:31:06;91431.97;;;15.12;52.81
6395;BME280;3230;42.588;23.358;2024-02-28T10:33:31;91420.88;;;14.96;54.74
6395;BME280;3230;42.588;23.358;2024-02-28T10:35:58;91421.00;;;15.18;53.61
6395;BME280;3230;42.588;23.358;2024-02-28T10:38:26;91411.63;;;14.46;54.74
6395;BME280;3230;42.588;23.358;2024-02-28T10:40:52;91412.59;;;14.69;55.93
6395;BME280;3230;42.588;23.358;2024-02-28T10:43:19;91407.81;;;15.18;51.98
6395;BME280;3230;42.588;23.358;2024-02-28T10:45:44;91411.72;;;15.07;53.35
6395;BME280;3230;42.588;23.358;2024-02-28T10:48:13;91411.53;;;15.31;51.44
6395;BME280;3230;42.588;23.358;2024-02-28T10:50:39;91416.06;;;15.31;49.95
6395;BME280;3230;42.588;23.358;2024-02-28T10:53:11;91405.00;;;15.43;50.27
6395;BME280;3230;42.588;23.358;2024-02-28T10:55:39;91403.28;;;15.05;51.17
6395;BME280;3230;42.588;23.358;2024-02-28T10:58:09;91407.03;;;14.71;50.65
6395;BME280;3230;42.588;23.358;2024-02-28T11:00:40;91403.78;;;15.07;52.06
6395;BME280;3230;42.588;23.358;2024-02-28T11:03:13;91408.22;;;15.40;52.54
6395;BME280;3230;42.588;23.358;2024-02-28T11:05:42;91400.09;;;15.22;54.25
6395;BME280;3230;42.588;23.358;2024-02-28T11:08:21;91394.31;;;15.06;54.68
6395;BME280;3230;42.588;23.358;2024-02-28T11:10:53;91395.47;;;15.00;55.03
6395;BME280;3230;42.588;23.358;2024-02-28T11:13:24;91395.69;;;15.03;55.01
6395;BME280;3230;42.588;23.358;2024-02-28T11:15:50;91399.16;;;14.85;55.41
6395;BME280;3230;42.588;23.358;2024-02-28T11:18:16;91382.22;;;14.72;54.10
6395;BME280;3230;42.588;23.358;2024-02-28T11:20:42;91384.19;;;14.66;54.34
6395;BME280;3230;42.588;23.358;2024-02-28T11:23:10;91383.50;;;14.75;53.51
6395;BME280;3230;42.588;23.358;2024-02-28T11:25:35;91375.06;;;15.06;53.59
6395;BME280;3230;42.588;23.358;2024-02-28T11:28:01;91382.41;;;15.37;52.38
6395;BME280;3230;42.588;23.358;2024-02-28T11:30:26;91378.19;;;15.35;52.36
6395;BME280;3230;42.588;23.358;2024-02-28T11:32:52;91368.47;;;14.89;55.45
6395;BME280;3230;42.588;23.358;2024-02-28T11:35:23;91361.97;;;15.14;54.26
6395;BME280;3230;42.588;23.358;2024-02-28T11:37:49;91364.81;;;15.04;54.40
6395;BME280;3230;42.588;23.358;2024-02-28T11:40:14;91360.03;;;15.20;54.05
6395;BME280;3230;42.588;23.358;2024-02-28T11:42:40;91366.53;;;15.09;53.60
6395;BME280;3230;42.588;23.358;2024-02-28T11:45:09;91360.28;;;15.18;52.69
6395;BME280;3230;42.588;23.358;2024-02-28T11:47:35;91356.09;;;14.90;53.15
6395;BME280;3230;42.588;23.358;2024-02-28T11:50:04;91365.38;;;15.01;52.81
6395;BME280;3230;42.588;23.358;2024-02-28T11:52:33;91353.09;;;15.10;52.83
6395;BME280;3230;42.588;23.358;2024-02-28T11:54:59;91348.88;;;15.09;52.83
6395;BME280;3230;42.588;23.358;2024-02-28T11:57:25;91355.22;;;15.22;52.71
6395;BME280;3230;42.588;23.358;2024-02-28T11:59:51;91357.56;;;15.10;53.52
6395;BME280;3230;42.588;23.358;2024-02-28T12:02:17;91353.66;;;15.35;52.79
6395;BME280;3230;42.588;23.358;2024-02-28T12:04:44;91358.75;;;15.31;52.44
6395;BME280;3230;42.588;23.358;2024-02-28T12:07:10;91353.25;;;15.00;53.45
6395;BME280;3230;42.588;23.358;2024-02-28T12:09:36;91348.97;;;15.04;53.33
6395;BME280;3230;42.588;23.358;2024-02-28T12:12:02;91349.94;;;15.08;54.58
6395;BME280;3230;42.588;23.358;2024-02-28T12:14:32;91347.22;;;14.99;53.46
6395;BME280;3230;42.588;23.358;2024-02-28T12:16:58;91345.16;;;15.10;53.16
6395;BME280;3230;42.588;23.358;2024-02-28T12:19:24;91339.09;;;15.24;52.49
6395;BME280;3230;42.588;23.358;2024-02-28T12:21:50;91338.19;;;15.28;51.87
6395;BME280;3230;42.588;23.358;2024-02-28T12:24:15;91332.63;;;15.44;52.81
6395;BME280;3230;42.588;23.358;2024-02-28T12:26:41;91336.22;;;15.62;50.99
6395;BME280;3230;42.588;23.358;2024-02-28T12:29:07;91337.03;;;15.48;51.60
6395;BME280;3230;42.588;23.358;2024-02-28T12:31:32;91336.59;;;15.55;50.67
6395;BME280;3230;42.588;23.358;2024-02-28T12:33:58;91328.97;;;15.54;50.71
6395;BME280;3230;42.588;23.358;2024-02-28T12:36:24;91333.91;;;15.32;51.19
6395;BME280;3230;42.588;23.358;2024-02-28T12:38:50;91331.38;;;15.13;52.04
6395;BME280;3230;42.588;23.358;2024-02-28T12:41:16;91335.56;;;15.28;51.78
6395;BME280;3230;42.588;23.358;2024-02-28T12:43:41;91330.97;;;14.92;52.21
6395;BME280;3230;42.588;23.358;2024-02-28T12:46:07;91329.13;;;15.21;51.76
6395;BME280;3230;42.588;23.358;2024-02-28T12:48:39;91319.44;;;15.16;52.27
6395;BME280;3230;42.588;23.358;2024-02-28T12:51:05;91321.81;;;15.17;53.30
6395;BME280;3230;42.588;23.358;2024-02-28T12:53:34;91323.16;;;15.15;53.81
6395;BME280;3230;42.588;23.358;2024-02-28T12:56:00;91324.72;;;15.30;52.40
6395;BME280;3230;42.588;23.358;2024-02-28T12:58:25;91327.44;;;15.39;51.71
6395;BME280;3230;42.588;23.358;2024-02-28T13:00:51;91331.44;;;15.50;52.05
6395;BME280;3230;42.588;23.358;2024-02-28T13:03:17;91316.50;;;15.31;52.11